Time;durP1;ratioP1;P1;durP2;ratioP2;P2;SDS_P1;SDS_P2;PMS_P1;PMS_P2;Temp;Humidity;BMP_temperature;BMP_pressure;BME280_temperature;BME280_humidity;BME280_pressure;Samples;Min_cycle;Max_cycle;Signal;HPM_P1;HPM_P2
2022/07/08 00:01:56;;;;;;;3.03;0.25;;;14.60;99.90;;;;;;4995448;28;20674;-73
2022/07/08 00:04:22;;;;;;;2.40;0.25;;;14.50;99.90;;;;;;5012972;28;21839;-74
2022/07/08 00:06:49;;;;;;;3.03;0.30;;;14.50;99.90;;;;;;5025900;28;20497;-73
2022/07/08 00:09:14;;;;;;;1.55;0.20;;;14.50;99.90;;;;;;5011911;28;20022;-73
2022/07/08 00:11:41;;;;;;;5.07;0.22;;;14.40;99.90;;;;;;5013268;28;20466;-77
2022/07/08 00:14:09;;;;;;;2.25;0.20;;;14.40;99.90;;;;;;5011360;28;20539;-73
2022/07/08 00:16:37;;;;;;;2.83;0.20;;;14.40;99.90;;;;;;4996304;28;20073;-73
2022/07/08 00:19:02;;;;;;;1.98;0.20;;;14.50;99.90;;;;;;4994063;28;20033;-74
2022/07/08 00:21:28;;;;;;;2.15;0.10;;;14.50;99.90;;;;;;4995902;28;22528;-72
2022/07/08 00:23:54;;;;;;;3.38;0.20;;;14.50;99.90;;;;;;5013404;28;20088;-73
2022/07/08 00:26:19;;;;;;;1.20;0.20;;;14.50;99.90;;;;;;5010660;28;20113;-73
2022/07/08 00:28:45;;;;;;;2.75;0.30;;;14.50;99.90;;;;;;5013223;28;20033;-72
2022/07/08 00:31:10;;;;;;;1.50;0.20;;;14.50;99.90;;;;;;5015988;28;20032;-74
2022/07/08 00:33:36;;;;;;;2.65;0.30;;;14.50;99.90;;;;;;5009338;28;20041;-73
2022/07/08 00:36:02;;;;;;;3.17;0.30;;;14.50;99.90;;;;;;5010406;28;20080;-73
2022/07/08 00:38:27;;;;;;;3.38;0.50;;;14.50;99.90;;;;;;5015293;28;20126;-73
2022/07/08 00:40:53;;;;;;;2.75;0.20;;;14.50;99.90;;;;;;5011542;28;20088;-73
2022/07/08 00:43:37;;;;;;;2.22;0.20;;;14.50;99.90;;;;;;5012478;28;20043;-72
2022/07/08 00:46:02;;;;;;;5.43;0.20;;;14.50;99.90;;;;;;4999252;28;20485;-72
2022/07/08 00:48:28;;;;;;;3.00;0.20;;;14.50;99.90;;;;;;5012581;28;20091;-72
2022/07/08 00:50:55;;;;;;;4.38;0.30;;;14.50;99.90;;;;;;5016923;28;20053;-72
2022/07/08 00:53:22;;;;;;;2.25;0.17;;;14.50;99.90;;;;;;5011269;28;20441;-74
2022/07/08 00:55:48;;;;;;;3.22;0.20;;;14.40;99.90;;;;;;5011952;28;20033;-73
2022/07/08 00:58:14;;;;;;;2.47;0.20;;;14.40;99.90;;;;;;5011765;28;20049;-72
2022/07/08 01:00:40;;;;;;;3.63;0.22;;;14.50;99.90;;;;;;5011788;28;20037;-73
2022/07/08 01:03:06;;;;;;;3.17;0.30;;;14.50;99.90;;;;;;5011257;28;20129;-73
2022/07/08 01:05:31;;;;;;;2.55;0.20;;;14.40;99.90;;;;;;5010326;28;20120;-73
2022/07/08 01:07:57;;;;;;;2.85;0.20;;;14.40;99.90;;;;;;4994142;28;20120;-73
2022/07/08 01:10:23;;;;;;;2.30;0.30;;;14.40;99.90;;;;;;5014582;28;20132;-75
2022/07/08 01:12:49;;;;;;;1.35;0.30;;;14.40;99.90;;;;;;5011093;28;20079;-73
2022/07/08 01:15:14;;;;;;;3.17;0.30;;;14.40;99.90;;;;;;4994920;28;20053;-73
2022/07/08 01:17:44;;;;;;;4.97;0.40;;;14.40;99.90;;;;;;5011634;28;20052;-73
2022/07/08 01:20:12;;;;;;;5.82;0.40;;;14.40;99.90;;;;;;5008969;28;20034;-74
2022/07/08 01:22:38;;;;;;;4.90;0.20;;;14.40;99.90;;;;;;5011553;28;20038;-73
2022/07/08 01:25:05;;;;;;;2.78;0.30;;;14.40;99.90;;;;;;5009330;28;20678;-73
2022/07/08 01:27:32;;;;;;;2.88;0.30;;;14.40;99.90;;;;;;5009110;28;20033;-73
2022/07/08 01:29:57;;;;;;;2.80;0.20;;;14.40;99.90;;;;;;5010851;28;20080;-73
2022/07/08 01:32:29;;;;;;;5.15;0.50;;;14.40;99.90;;;;;;5025710;28;20041;-73
2022/07/08 01:34:54;;;;;;;5.63;0.30;;;14.30;99.90;;;;;;4993962;28;20076;-77
2022/07/08 01:37:20;;;;;;;4.82;0.30;;;14.30;99.90;;;;;;5010987;28;20441;-73
2022/07/08 01:39:47;;;;;;;4.45;0.30;;;14.30;99.90;;;;;;5044093;28;20506;-72
2022/07/08 01:42:12;;;;;;;4.93;0.40;;;14.30;99.90;;;;;;5050628;28;20040;-73
2022/07/08 01:44:38;;;;;;;3.67;0.30;;;14.30;99.90;;;;;;5051531;28;20040;-72
2022/07/08 01:47:04;;;;;;;5.03;0.30;;;14.20;99.90;;;;;;5050221;28;20540;-72
2022/07/08 01:49:29;;;;;;;4.30;0.40;;;14.20;99.90;;;;;;5050562;28;20033;-73
2022/07/08 01:51:55;;;;;;;8.52;0.30;;;14.20;99.90;;;;;;5034286;28;20021;-75
2022/07/08 01:54:21;;;;;;;3.58;0.30;;;14.20;99.90;;;;;;5053978;28;20048;-73
2022/07/08 01:56:46;;;;;;;4.75;0.40;;;14.10;99.90;;;;;;5050057;28;20025;-73
2022/07/08 01:59:12;;;;;;;4.25;0.30;;;14.10;99.90;;;;;;5031655;28;20029;-73
2022/07/08 02:01:37;;;;;;;3.17;0.40;;;14.10;99.90;;;;;;5038769;28;20074;-73
2022/07/08 02:04:03;;;;;;;5.30;0.32;;;14.10;99.90;;;;;;5054393;28;20037;-73
2022/07/08 02:06:29;;;;;;;3.17;0.30;;;14.00;99.90;;;;;;5050418;28;20739;-74
2022/07/08 02:08:55;;;;;;;4.68;0.30;;;14.00;99.90;;;;;;5054662;28;20519;-72
2022/07/08 02:14:05;;;;;;;3.03;0.30;;;14.00;99.90;;;;;;5050972;28;20036;-72
2022/07/08 02:16:32;;;;;;;2.42;0.68;;;13.90;99.90;;;;;;5053696;28;20055;-73
2022/07/08 02:18:58;;;;;;;5.05;0.40;;;13.90;99.90;;;;;;5036631;28;20047;-72
2022/07/08 02:21:23;;;;;;;5.65;0.30;;;13.80;99.90;;;;;;5051101;28;20037;-72
2022/07/08 02:23:49;;;;;;;3.40;0.25;;;13.80;99.90;;;;;;5069601;28;21169;-73
2022/07/08 02:26:15;;;;;;;3.97;0.28;;;13.70;99.90;;;;;;5036732;28;20033;-73
2022/07/08 02:28:40;;;;;;;2.55;0.20;;;13.70;99.90;;;;;;5052612;28;20064;-73
2022/07/08 02:31:06;;;;;;;3.60;0.30;;;13.70;99.90;;;;;;5064435;28;22369;-72
2022/07/08 02:33:31;;;;;;;4.72;0.30;;;13.70;99.90;;;;;;5053935;28;20652;-73
2022/07/08 02:35:57;;;;;;;2.78;0.50;;;13.60;99.90;;;;;;5052811;28;20028;-72
2022/07/08 02:38:24;;;;;;;2.47;0.20;;;13.60;99.90;;;;;;5053219;28;20460;-73
2022/07/08 02:40:50;;;;;;;1.15;0.20;;;13.60;99.90;;;;;;5054312;28;20021;-72
2022/07/08 02:43:16;;;;;;;2.75;0.20;;;13.60;99.90;;;;;;5052858;28;20102;-72
2022/07/08 02:45:41;;;;;;;2.80;0.30;;;13.60;99.90;;;;;;5054334;28;20085;-72
2022/07/08 02:48:07;;;;;;;3.47;0.40;;;13.50;99.90;;;;;;5053481;28;20345;-73
2022/07/08 02:50:33;;;;;;;3.03;0.40;;;13.50;99.90;;;;;;5046569;28;20541;-74
2022/07/08 02:52:59;;;;;;;2.17;0.30;;;13.40;99.90;;;;;;5051854;28;20476;-72
2022/07/08 02:55:24;;;;;;;2.33;0.30;;;13.40;99.90;;;;;;5051004;28;20043;-73
2022/07/08 02:57:51;;;;;;;2.20;0.30;;;13.40;99.90;;;;;;5052516;28;20115;-73
2022/07/08 03:00:17;;;;;;;1.75;0.20;;;13.40;99.90;;;;;;5053516;28;20028;-73
2022/07/08 03:02:42;;;;;;;2.30;0.22;;;13.30;99.90;;;;;;5051715;28;20078;-73
2022/07/08 03:05:08;;;;;;;2.33;0.20;;;13.30;99.90;;;;;;5055294;28;20036;-72
2022/07/08 03:07:34;;;;;;;2.28;0.30;;;13.20;99.90;;;;;;5054840;28;20119;-72
2022/07/08 03:09:59;;;;;;;2.75;0.20;;;13.10;99.90;;;;;;5052571;28;20024;-73
2022/07/08 03:12:26;;;;;;;2.78;0.20;;;13.10;99.90;;;;;;5048356;28;20029;-73
2022/07/08 03:14:52;;;;;;;2.97;0.20;;;13.00;99.90;;;;;;5040432;28;20792;-74
2022/07/08 03:17:17;;;;;;;2.28;0.22;;;13.00;99.90;;;;;;5069702;28;20111;-73
2022/07/08 03:19:43;;;;;;;3.35;0.22;;;13.00;99.90;;;;;;5058754;28;20028;-72
2022/07/08 03:22:08;;;;;;;2.45;0.22;;;12.90;99.90;;;;;;5051922;28;20493;-73
2022/07/08 03:24:34;;;;;;;3.42;0.28;;;12.90;99.90;;;;;;5054729;28;20024;-73
2022/07/08 03:27:00;;;;;;;2.80;0.40;;;12.90;99.90;;;;;;5052316;28;20033;-73
2022/07/08 03:29:26;;;;;;;3.53;0.30;;;12.90;99.90;;;;;;5057941;28;20052;-73
2022/07/08 03:31:51;;;;;;;1.40;0.30;;;12.80;99.90;;;;;;5036876;28;20028;-72
2022/07/08 03:34:17;;;;;;;2.88;0.22;;;12.80;99.90;;;;;;5054165;28;20025;-73
2022/07/08 03:36:43;;;;;;;2.15;0.20;;;12.80;99.90;;;;;;5035134;28;20028;-73
2022/07/08 03:39:09;;;;;;;1.88;0.20;;;12.80;99.90;;;;;;5067511;28;20057;-72
2022/07/08 03:41:34;;;;;;;3.13;0.22;;;12.70;99.90;;;;;;5052132;28;20102;-73
2022/07/08 03:44:00;;;;;;;1.85;0.20;;;12.70;99.90;;;;;;5050478;28;20496;-72
2022/07/08 03:46:26;;;;;;;3.83;0.20;;;12.70;99.90;;;;;;5064054;28;20579;-72
2022/07/08 03:48:51;;;;;;;2.60;0.20;;;12.70;99.90;;;;;;5050764;28;20048;-72
2022/07/08 03:51:18;;;;;;;3.05;0.30;;;12.70;99.90;;;;;;5051736;28;20021;-72
2022/07/08 03:53:44;;;;;;;3.55;0.30;;;12.70;99.90;;;;;;5051876;28;20040;-72
2022/07/08 03:56:10;;;;;;;3.40;0.28;;;12.70;99.90;;;;;;5052410;28;20017;-72
2022/07/08 03:58:36;;;;;;;2.40;0.30;;;12.70;99.90;;;;;;5033243;28;20137;-72
2022/07/08 04:01:02;;;;;;;2.13;0.25;;;12.70;99.90;;;;;;5052152;28;20080;-73
2022/07/08 04:03:28;;;;;;;1.77;0.17;;;12.70;99.90;;;;;;5049763;28;20243;-72
2022/07/08 04:05:53;;;;;;;2.35;0.20;;;12.60;99.90;;;;;;5052410;28;20020;-72
2022/07/08 04:08:19;;;;;;;1.92;0.20;;;12.70;99.90;;;;;;5049768;28;20488;-72
2022/07/08 04:10:45;;;;;;;3.10;0.30;;;12.70;99.90;;;;;;5050962;28;20480;-72
2022/07/08 04:13:10;;;;;;;1.55;0.20;;;12.80;99.90;;;;;;5049944;28;20033;-73
2022/07/08 04:15:36;;;;;;;2.42;0.20;;;12.80;99.90;;;;;;5051525;28;20067;-72
2022/07/08 04:18:02;;;;;;;3.33;0.20;;;12.90;99.90;;;;;;5055132;28;20043;-72
2022/07/08 04:20:28;;;;;;;2.92;0.20;;;12.80;99.90;;;;;;5053135;28;20397;-72
2022/07/08 04:22:54;;;;;;;2.05;0.20;;;12.90;99.90;;;;;;5050313;28;20468;-72
2022/07/08 04:25:19;;;;;;;4.15;0.40;;;13.00;99.90;;;;;;5050803;28;20639;-72
2022/07/08 04:27:45;;;;;;;2.33;0.20;;;13.10;99.90;;;;;;5051998;28;20024;-74
2022/07/08 04:30:11;;;;;;;3.38;0.30;;;13.10;99.90;;;;;;5065226;28;20028;-72
2022/07/08 04:32:37;;;;;;;1.05;0.20;;;13.20;99.90;;;;;;5051814;28;20111;-72
2022/07/08 04:35:03;;;;;;;2.58;0.20;;;13.30;99.90;;;;;;5051566;28;20485;-73
2022/07/08 04:37:29;;;;;;;3.00;0.25;;;13.40;99.90;;;;;;5048488;28;20111;-73
2022/07/08 04:39:55;;;;;;;3.72;0.38;;;13.40;99.90;;;;;;5049093;28;20530;-72
2022/07/08 04:42:21;;;;;;;2.47;0.30;;;13.50;99.90;;;;;;5051772;28;20041;-72
2022/07/08 04:44:47;;;;;;;4.53;0.40;;;13.50;99.90;;;;;;5032402;28;20029;-72
2022/07/08 04:47:12;;;;;;;2.10;0.30;;;13.60;99.90;;;;;;5033442;28;20090;-72
2022/07/08 04:49:38;;;;;;;2.97;0.40;;;13.60;99.90;;;;;;5050288;28;20025;-72
2022/07/08 04:52:06;;;;;;;3.05;0.20;;;13.70;99.90;;;;;;5049497;28;20031;-73
2022/07/08 04:54:37;;;;;;;4.47;0.30;;;13.80;99.90;;;;;;5049374;28;20071;-73
2022/07/08 04:57:04;;;;;;;1.42;0.30;;;13.80;99.90;;;;;;5048538;28;20131;-74
2022/07/08 04:59:30;;;;;;;1.20;0.20;;;13.80;99.90;;;;;;5047725;28;20594;-73
2022/07/08 05:01:56;;;;;;;2.35;0.28;;;13.80;99.90;;;;;;5051507;28;20131;-73
2022/07/08 05:04:21;;;;;;;3.25;0.30;;;13.90;99.90;;;;;;5059204;28;20033;-72
2022/07/08 05:06:47;;;;;;;6.88;0.40;;;14.10;99.90;;;;;;5059876;28;20032;-74
2022/07/08 05:09:13;;;;;;;2.47;0.30;;;14.10;99.90;;;;;;5049704;28;20183;-73
2022/07/08 05:11:38;;;;;;;3.05;0.30;;;14.20;99.90;;;;;;5053199;28;20051;-73
2022/07/08 05:14:05;;;;;;;2.67;0.40;;;14.20;99.90;;;;;;5048117;28;20092;-73
2022/07/08 05:16:31;;;;;;;4.80;0.45;;;14.20;99.90;;;;;;5048360;28;20024;-73
2022/07/08 05:18:56;;;;;;;6.32;0.40;;;14.20;99.90;;;;;;5031529;28;20033;-75
2022/07/08 05:21:22;;;;;;;9.20;0.60;;;14.10;99.90;;;;;;5046012;28;20311;-77
2022/07/08 05:23:48;;;;;;;3.08;0.40;;;14.20;99.90;;;;;;5030779;28;20028;-73
2022/07/08 05:26:13;;;;;;;5.95;0.55;;;14.40;99.90;;;;;;5048926;28;20463;-75
2022/07/08 05:28:39;;;;;;;3.05;0.30;;;14.40;99.90;;;;;;5050953;28;20052;-72
2022/07/08 05:31:04;;;;;;;3.75;0.30;;;14.50;99.90;;;;;;5040904;28;22660;-73
2022/07/08 05:33:30;;;;;;;5.38;0.40;;;14.50;99.90;;;;;;5048893;28;20047;-73
2022/07/08 05:35:56;;;;;;;5.80;0.50;;;14.60;99.90;;;;;;5028572;28;20035;-73
2022/07/08 05:38:21;;;;;;;3.00;0.40;;;14.60;99.90;;;;;;5051984;28;20424;-74
2022/07/08 05:40:47;;;;;;;6.38;0.50;;;14.60;99.90;;;;;;5052490;28;20534;-73
2022/07/08 05:43:12;;;;;;;3.13;0.40;;;14.70;99.90;;;;;;5046211;28;20041;-73
2022/07/08 05:45:38;;;;;;;3.95;0.40;;;14.70;99.90;;;;;;5046737;28;20037;-73
2022/07/08 05:48:04;;;;;;;4.38;0.52;;;15.10;99.90;;;;;;5061545;28;20034;-73
2022/07/08 05:50:30;;;;;;;5.57;0.50;;;15.10;99.90;;;;;;5044927;28;20028;-73
2022/07/08 05:52:55;;;;;;;3.70;0.40;;;14.90;99.90;;;;;;5031188;28;20507;-74
2022/07/08 05:55:21;;;;;;;4.75;0.40;;;14.90;99.90;;;;;;5047115;28;20044;-73
2022/07/08 05:57:46;;;;;;;5.88;0.52;;;15.00;99.90;;;;;;5059729;28;21045;-73
2022/07/08 06:00:12;;;;;;;4.88;0.30;;;15.00;99.90;;;;;;5049161;28;20037;-78
2022/07/08 06:02:38;;;;;;;5.10;0.43;;;15.50;99.90;;;;;;5048728;28;20049;-73
2022/07/08 06:05:04;;;;;;;3.03;0.40;;;15.90;99.90;;;;;;5048917;28;20037;-74
2022/07/08 06:07:32;;;;;;;8.68;0.60;;;16.50;99.90;;;;;;5032785;28;20032;-73
2022/07/08 06:09:57;;;;;;;6.30;0.38;;;16.00;99.90;;;;;;5047797;28;20039;-73
2022/07/08 06:12:23;;;;;;;6.93;0.40;;;15.60;99.90;;;;;;5051450;28;20032;-75
2022/07/08 06:14:48;;;;;;;6.85;0.40;;;15.50;99.90;;;;;;5046459;28;20051;-73
2022/07/08 06:17:14;;;;;;;4.82;0.40;;;15.50;99.90;;;;;;5047664;28;20032;-78
2022/07/08 06:19:40;;;;;;;6.85;0.45;;;15.50;99.90;;;;;;5027836;28;20032;-74
2022/07/08 06:22:05;;;;;;;5.32;0.38;;;15.60;99.90;;;;;;5046570;28;20040;-73
2022/07/08 06:24:31;;;;;;;5.47;0.63;;;15.70;99.90;;;;;;5044577;28;20036;-73
2022/07/08 06:26:56;;;;;;;6.03;0.50;;;16.10;99.90;;;;;;5039313;28;20036;-74
2022/07/08 06:29:22;;;;;;;7.60;0.40;;;16.30;99.90;;;;;;5048051;28;20032;-74
2022/07/08 06:31:48;;;;;;;4.10;0.60;;;16.50;99.90;;;;;;5047304;28;20127;-76
2022/07/08 06:34:13;;;;;;;3.05;0.30;;;16.70;99.90;;;;;;5044984;28;20021;-74
2022/07/08 06:36:39;;;;;;;4.30;0.75;;;16.60;99.90;;;;;;5031083;28;20060;-74
2022/07/08 06:39:04;;;;;;;9.77;0.55;;;16.80;99.90;;;;;;5046124;28;20048;-74
2022/07/08 06:41:31;;;;;;;5.18;0.40;;;17.00;99.90;;;;;;5048594;28;20078;-78
2022/07/08 06:43:57;;;;;;;3.15;0.40;;;16.70;99.90;;;;;;5044502;28;20043;-74
2022/07/08 06:46:22;;;;;;;3.55;0.35;;;16.60;99.90;;;;;;5026372;28;20048;-74
2022/07/08 06:48:48;;;;;;;6.38;0.40;;;16.70;99.90;;;;;;5045653;28;20036;-74
2022/07/08 06:51:13;;;;;;;3.90;0.20;;;16.90;99.90;;;;;;5028289;28;20040;-74
2022/07/08 06:56:40;;;;;;;2.08;0.28;;;17.00;99.90;;;;;;4986743;28;20076;-73
2022/07/08 06:59:06;;;;;;;6.20;0.75;;;16.90;99.90;;;;;;4953135;28;20085;-74
2022/07/08 07:01:32;;;;;;;2.53;0.30;;;16.60;99.90;;;;;;4972042;28;20092;-74
2022/07/08 07:03:57;;;;;;;5.90;0.30;;;16.80;99.90;;;;;;4986222;28;20030;-74
2022/07/08 07:06:23;;;;;;;6.40;0.30;;;17.00;99.90;;;;;;4954905;28;20126;-74
2022/07/08 07:08:48;;;;;;;4.43;0.30;;;16.70;99.90;;;;;;4972805;28;20049;-75
2022/07/08 07:11:14;;;;;;;3.25;0.38;;;16.80;99.90;;;;;;4990609;28;20123;-78
2022/07/08 07:13:40;;;;;;;3.92;0.30;;;16.90;99.90;;;;;;4957039;28;20057;-74
2022/07/08 07:16:06;;;;;;;5.18;0.30;;;17.10;99.90;;;;;;4970868;28;20131;-75
2022/07/08 07:18:32;;;;;;;4.75;0.35;;;17.30;99.90;;;;;;4971478;28;20559;-74
2022/07/08 07:20:58;;;;;;;4.18;0.30;;;17.70;99.90;;;;;;4969873;28;20026;-74
2022/07/08 07:23:23;;;;;;;2.17;0.30;;;17.70;99.90;;;;;;4962853;28;20399;-74
2022/07/08 07:25:49;;;;;;;7.93;0.30;;;17.70;99.90;;;;;;4988167;28;20522;-73
2022/07/08 07:28:14;;;;;;;2.83;0.30;;;17.40;99.90;;;;;;4988261;28;20038;-74
2022/07/08 07:30:40;;;;;;;4.53;0.30;;;17.70;99.90;;;;;;5016667;28;20213;-73
2022/07/08 07:33:06;;;;;;;3.75;0.40;;;17.30;99.90;;;;;;5035155;28;20037;-72
2022/07/08 07:35:31;;;;;;;4.68;0.35;;;17.60;99.90;;;;;;5049793;28;20024;-75
2022/07/08 07:37:57;;;;;;;4.28;0.50;;;18.00;99.90;;;;;;5047189;28;20105;-74
2022/07/08 07:40:22;;;;;;;5.43;0.47;;;17.70;99.90;;;;;;5049408;28;20177;-74
2022/07/08 07:42:48;;;;;;;3.42;0.30;;;17.60;99.90;;;;;;5048838;28;20751;-75
2022/07/08 07:45:14;;;;;;;5.65;0.40;;;17.60;99.90;;;;;;5048251;28;20033;-74
2022/07/08 07:47:39;;;;;;;8.32;0.38;;;17.50;99.90;;;;;;5048304;28;20404;-77
2022/07/08 07:50:05;;;;;;;5.57;0.40;;;17.40;99.90;;;;;;5052686;28;20091;-73
2022/07/08 07:52:31;;;;;;;7.25;0.82;;;17.60;99.90;;;;;;5030944;28;20056;-74
2022/07/08 07:54:56;;;;;;;4.30;0.30;;;18.00;99.90;;;;;;5037237;28;20032;-75
2022/07/08 07:57:22;;;;;;;4.53;0.30;;;17.80;99.90;;;;;;5052252;28;20500;-75
2022/07/08 07:59:47;;;;;;;6.40;0.40;;;18.50;99.90;;;;;;5047697;28;20412;-74
2022/07/08 08:02:13;;;;;;;3.13;0.30;;;18.20;99.90;;;;;;5042161;28;20401;-74
2022/07/08 08:04:39;;;;;;;2.70;0.30;;;18.40;99.90;;;;;;5053851;28;20028;-74
2022/07/08 08:07:04;;;;;;;7.25;0.35;;;18.80;99.90;;;;;;5048174;28;20024;-77
2022/07/08 08:09:30;;;;;;;2.47;0.30;;;18.50;99.90;;;;;;5055216;28;20467;-74
2022/07/08 08:11:55;;;;;;;4.25;0.30;;;18.00;99.90;;;;;;5050924;28;20032;-73
2022/07/08 08:14:21;;;;;;;4.53;0.20;;;18.20;99.90;;;;;;5048097;28;20041;-75
2022/07/08 08:16:47;;;;;;;3.63;0.40;;;18.30;99.90;;;;;;5054077;28;20133;-73
2022/07/08 08:19:12;;;;;;;3.58;0.30;;;18.50;99.90;;;;;;5051081;28;20040;-75
2022/07/08 08:21:38;;;;;;;5.78;0.30;;;18.60;99.90;;;;;;5048530;28;20056;-75
2022/07/08 08:24:04;;;;;;;2.72;0.10;;;18.30;99.90;;;;;;5048863;28;20554;-75
2022/07/08 08:26:30;;;;;;;6.75;0.30;;;19.00;99.90;;;;;;5032815;28;20053;-76
2022/07/08 08:28:55;;;;;;;3.95;0.30;;;18.40;99.90;;;;;;5063651;28;20036;-73
2022/07/08 08:31:21;;;;;;;4.30;0.20;;;18.60;99.90;;;;;;5031783;28;20025;-74
2022/07/08 08:33:46;;;;;;;3.08;0.20;;;18.50;99.90;;;;;;5051231;28;20382;-73
2022/07/08 08:36:12;;;;;;;3.42;0.20;;;18.70;99.90;;;;;;5062820;28;20060;-74
2022/07/08 08:38:38;;;;;;;1.83;0.20;;;18.90;99.90;;;;;;5049905;28;20075;-75
2022/07/08 08:41:05;;;;;;;4.78;0.30;;;19.00;99.90;;;;;;5064040;28;20025;-73
2022/07/08 08:43:30;;;;;;;3.97;0.20;;;18.70;99.90;;;;;;5045551;28;20040;-73
2022/07/08 08:45:56;;;;;;;2.05;0.20;;;18.70;99.90;;;;;;5031488;28;20098;-74
2022/07/08 08:48:23;;;;;;;4.13;0.30;;;18.40;99.90;;;;;;5048047;28;20503;-74
2022/07/08 08:50:56;;;;;;;4.57;0.45;;;18.20;99.90;;;;;;5062885;28;20083;-75
2022/07/08 08:53:40;;;;;;;3.67;0.20;;;18.50;99.90;;;;;;5064133;28;20032;-75
2022/07/08 08:56:09;;;;;;;3.95;0.30;;;18.90;99.90;;;;;;5046860;28;21813;-78
2022/07/08 08:58:38;;;;;;;3.42;0.30;;;19.00;99.90;;;;;;5047005;28;20146;-74
2022/07/08 09:01:07;;;;;;;2.60;0.28;;;18.80;99.90;;;;;;5045295;28;20464;-73
2022/07/08 09:03:33;;;;;;;3.30;0.20;;;19.40;99.90;;;;;;5061148;28;20397;-74
2022/07/08 09:05:58;;;;;;;3.13;0.45;;;19.80;99.90;;;;;;5046895;28;20028;-74
2022/07/08 09:08:24;;;;;;;2.83;0.20;;;19.30;99.90;;;;;;5049241;28;20049;-76
2022/07/08 09:10:50;;;;;;;2.58;0.20;;;19.10;99.90;;;;;;5030190;28;20473;-74
2022/07/08 09:13:16;;;;;;;2.30;0.30;;;19.50;99.90;;;;;;5049363;28;20031;-74
2022/07/08 09:15:44;;;;;;;4.55;0.30;;;19.40;99.90;;;;;;5051665;28;20056;-75
2022/07/08 09:18:17;;;;;;;4.57;0.30;;;19.50;99.90;;;;;;5030430;28;20116;-74
2022/07/08 09:20:52;;;;;;;3.13;0.20;;;19.30;99.90;;;;;;5050845;28;20028;-73
2022/07/08 09:23:24;;;;;;;1.88;0.10;;;19.70;99.90;;;;;;5050486;28;20745;-74
2022/07/08 09:25:52;;;;;;;3.83;0.20;;;19.80;99.90;;;;;;5046617;28;20029;-73
2022/07/08 09:28:49;;;;;;;3.05;0.20;;;20.20;99.90;;;;;;5030638;28;20741;-75
2022/07/08 09:31:16;;;;;;;2.45;0.20;;;20.00;99.90;;;;;;5037588;28;20123;-74
2022/07/08 09:33:43;;;;;;;2.58;0.20;;;20.10;99.90;;;;;;5065257;28;20496;-73
2022/07/08 09:36:09;;;;;;;2.35;0.20;;;20.10;99.90;;;;;;5049413;28;20032;-73
2022/07/08 09:38:37;;;;;;;1.52;0.13;;;20.60;99.90;;;;;;5063336;28;20053;-74
2022/07/08 09:41:10;;;;;;;2.90;0.17;;;21.10;99.90;;;;;;5048868;28;20024;-74
2022/07/08 09:43:50;;;;;;;3.58;0.20;;;21.20;99.90;;;;;;5046459;28;20047;-74
2022/07/08 09:46:16;;;;;;;;;;;21.20;99.90;;;;;;5048148;28;20063;-73
2022/07/08 09:48:42;;;;;;;4.30;0.30;;;21.20;99.90;;;;;;5035394;28;19957;-76
2022/07/08 09:51:08;;;;;;;3.17;0.30;;;21.30;99.90;;;;;;5032078;28;20486;-74
2022/07/08 09:53:35;;;;;;;5.25;0.52;;;21.00;99.90;;;;;;5046187;28;20086;-73
2022/07/08 09:56:03;;;;;;;3.25;0.30;;;20.80;99.90;;;;;;5030575;28;20504;-73
2022/07/08 09:58:30;;;;;;;1.85;0.20;;;20.80;99.90;;;;;;5049069;28;20029;-73
2022/07/08 10:00:57;;;;;;;3.55;0.20;;;21.20;99.90;;;;;;5046423;28;20381;-74
2022/07/08 10:03:24;;;;;;;2.70;0.20;;;21.00;99.90;;;;;;5047384;28;20040;-74
2022/07/08 10:05:50;;;;;;;6.68;0.30;;;21.10;99.90;;;;;;5047081;28;20051;-74
2022/07/08 10:08:17;;;;;;;7.10;0.40;;;20.90;99.90;;;;;;5046221;28;20473;-74
2022/07/08 10:10:45;;;;;;;2.67;0.20;;;20.80;99.90;;;;;;5047040;28;20028;-74
2022/07/08 10:13:11;;;;;;;4.03;0.30;;;20.70;99.90;;;;;;5038812;28;20091;-75
2022/07/08 10:15:38;;;;;;;2.72;0.30;;;20.70;99.90;;;;;;5062385;28;20501;-74
2022/07/08 10:18:23;;;;;;;1.15;0.20;;;21.00;99.90;;;;;;5061926;28;20551;-74
2022/07/08 10:20:57;;;;;;;3.53;0.30;;;21.00;99.90;;;;;;5048103;28;20086;-74
2022/07/08 10:23:28;;;;;;;1.88;0.20;;;21.10;99.90;;;;;;5045644;28;20060;-75
2022/07/08 10:25:59;;;;;;;0.90;0.20;;;21.30;99.90;;;;;;5048637;28;20028;-74
2022/07/08 10:28:39;;;;;;;1.85;0.20;;;21.50;99.90;;;;;;5032319;28;20044;-78
2022/07/08 10:31:26;;;;;;;2.15;0.30;;;21.90;99.90;;;;;;5050200;28;20025;-74
2022/07/08 10:34:00;;;;;;;1.40;0.20;;;22.10;99.90;;;;;;5052437;28;20082;-75
2022/07/08 10:36:25;;;;;;;2.15;0.30;;;22.00;99.90;;;;;;5048722;28;20051;-74
2022/07/08 10:38:54;;;;;;;2.35;0.30;;;21.70;99.90;;;;;;5058975;28;20053;-74
2022/07/08 10:41:21;;;;;;;2.55;0.20;;;21.40;99.90;;;;;;5048449;28;20093;-74
2022/07/08 10:44:02;;;;;;;2.70;0.55;;;21.40;99.90;;;;;;5050844;28;20542;-73
2022/07/08 10:46:29;;;;;;;2.58;0.30;;;21.70;99.90;;;;;;5052040;28;20062;-74
2022/07/08 10:49:02;;;;;;;4.78;0.52;;;21.30;99.90;;;;;;5051720;28;20419;-74
2022/07/08 10:51:28;;;;;;;2.30;0.30;;;21.80;99.90;;;;;;5052129;28;20086;-74
2022/07/08 10:54:02;;;;;;;2.40;0.30;;;21.70;99.90;;;;;;5051102;28;20048;-74
2022/07/08 10:56:53;;;;;;;1.77;0.20;;;22.10;99.90;;;;;;5054025;28;20036;-74
2022/07/08 10:59:32;;;;;;;3.65;0.30;;;23.70;99.90;;;;;;5051493;28;20029;-74
2022/07/08 11:01:58;;;;;;;2.35;0.20;;;23.20;99.90;;;;;;5048839;28;20512;-74
2022/07/08 11:04:42;;;;;;;1.30;0.20;;;23.60;99.90;;;;;;5049658;28;20029;-74
2022/07/08 11:07:17;;;;;;;1.98;0.20;;;23.80;99.90;;;;;;5049732;28;20047;-74
2022/07/08 11:09:44;;;;;;;2.17;0.20;;;24.00;99.90;;;;;;5048057;28;20036;-75
2022/07/08 11:12:14;;;;;;;2.58;0.32;;;22.70;99.90;;;;;;5051026;28;20025;-75
2022/07/08 11:14:45;;;;;;;1.98;0.20;;;22.00;99.90;;;;;;5051505;28;20036;-74
2022/07/08 11:17:34;;;;;;;2.97;0.30;;;22.00;99.90;;;;;;5064599;28;20040;-74
2022/07/08 11:20:01;;;;;;;;;;;21.80;99.90;;;;;;5049139;28;20412;-74
2022/07/08 11:22:27;;;;;;;2.95;0.35;;;21.90;99.90;;;;;;5049699;28;19928;-74
2022/07/08 11:24:54;;;;;;;3.50;0.20;;;22.00;99.90;;;;;;5047473;28;20028;-74
2022/07/08 11:27:26;;;;;;;2.60;0.30;;;21.80;99.90;;;;;;5032358;28;20178;-74
2022/07/08 11:29:53;;;;;;;4.25;0.30;;;21.80;99.90;;;;;;5047963;28;20221;-74
2022/07/08 11:32:20;;;;;;;2.67;0.30;;;21.80;99.90;;;;;;5050521;28;20508;-75
2022/07/08 11:34:47;;;;;;;3.08;0.30;;;22.30;99.90;;;;;;5049420;28;20040;-74
2022/07/08 11:37:13;;;;;;;1.50;0.20;;;22.30;99.90;;;;;;5049400;28;20119;-74
2022/07/08 11:39:39;;;;;;;2.97;0.30;;;22.00;99.90;;;;;;5048543;28;20044;-74
2022/07/08 11:42:05;;;;;;;2.40;0.30;;;22.00;99.90;;;;;;5049999;28;20510;-74
2022/07/08 11:44:31;;;;;;;1.98;0.28;;;22.10;99.90;;;;;;5048934;28;20040;-75
2022/07/08 11:46:57;;;;;;;1.88;0.30;;;22.10;99.90;;;;;;5051414;28;20093;-74
2022/07/08 11:49:24;;;;;;;3.83;0.50;;;22.40;99.90;;;;;;5050316;28;20047;-74
2022/07/08 11:51:52;;;;;;;3.60;0.35;;;22.30;99.90;;;;;;5066843;28;20052;-75
2022/07/08 11:54:23;;;;;;;3.65;0.32;;;22.50;99.90;;;;;;5054947;28;20114;-74
2022/07/08 11:57:07;;;;;;;4.00;0.35;;;22.80;99.90;;;;;;5052496;28;20029;-74
2022/07/08 11:59:35;;;;;;;2.05;0.30;;;23.60;99.90;;;;;;5045926;28;20063;-74
2022/07/08 12:02:02;;;;;;;2.70;0.30;;;24.70;99.90;;;;;;5049514;28;20065;-74
2022/07/08 12:04:28;;;;;;;2.33;0.30;;;24.70;99.90;;;;;;5065766;28;20051;-75
2022/07/08 12:07:15;;;;;;;5.57;0.30;;;24.10;99.90;;;;;;5036838;28;20025;-74
2022/07/08 12:09:52;;;;;;;4.63;0.40;;;23.40;99.90;;;;;;5046591;28;20128;-74
2022/07/08 12:12:27;;;;;;;1.90;0.20;;;22.90;99.90;;;;;;5049126;28;20159;-78
2022/07/08 12:14:54;;;;;;;1.88;0.20;;;22.60;99.90;;;;;;5047775;28;20028;-75
2022/07/08 12:17:27;;;;;;;3.00;0.30;;;23.00;99.90;;;;;;5049718;28;20032;-74
2022/07/08 12:19:57;;;;;;;2.33;0.30;;;22.90;99.90;;;;;;5032075;28;20122;-74
2022/07/08 12:22:44;;;;;;;3.05;0.30;;;23.10;99.90;;;;;;5051600;28;20124;-77
2022/07/08 12:25:10;;;;;;;1.45;0.20;;;23.40;99.90;;;;;;5031477;28;20852;-74
2022/07/08 12:27:36;;;;;;;2.78;0.50;;;23.10;99.90;;;;;;5052653;28;20357;-76
2022/07/08 12:30:06;;;;;;;3.03;0.60;;;22.90;99.90;;;;;;5031084;28;20036;-76
2022/07/08 12:32:40;;;;;;;2.15;0.30;;;23.00;99.90;;;;;;5050040;28;20145;-74
2022/07/08 12:35:10;;;;;;;3.00;0.32;;;23.00;99.90;;;;;;5046360;28;20040;-74
2022/07/08 12:37:37;;;;;;;3.70;0.55;;;23.10;99.90;;;;;;5047556;28;21612;-75
2022/07/08 12:40:17;;;;;;;2.42;0.40;;;22.90;99.90;;;;;;5046638;28;20156;-75
2022/07/08 12:42:43;;;;;;;2.13;0.20;;;23.00;99.90;;;;;;5048217;28;20044;-74
2022/07/08 12:45:16;;;;;;;2.92;0.50;;;23.00;99.90;;;;;;5042425;28;20400;-74
2022/07/08 12:47:43;;;;;;;2.97;0.50;;;23.00;99.90;;;;;;5048912;28;20044;-75
2022/07/08 12:50:09;;;;;;;3.05;0.40;;;23.30;99.90;;;;;;5048059;28;20103;-74
2022/07/08 12:52:34;;;;;;;5.15;0.52;;;22.80;99.90;;;;;;5050273;28;20035;-74
2022/07/08 12:55:00;;;;;;;2.78;0.40;;;22.80;99.90;;;;;;5053319;28;20053;-75